Time;durP1;ratioP1;P1;durP2;ratioP2;P2;SDS_P1;SDS_P2;PMS_P1;PMS_P2;Temp;Humidity;BMP_temperature;BMP_pressure;BME280_temperature;BME280_humidity;BME280_pressure;Samples;Min_cycle;Max_cycle;Signal;HPM_P1;HPM_P2
2022/02/19 00:00:24;;;;;;;7.47;1.67;;;6.40;99.90;;;;;;5072992;28;20201;-90
2022/02/19 00:02:53;;;;;;;9.37;1.90;;;6.40;99.90;;;;;;5073514;28;20228;-85
2022/02/19 00:05:22;;;;;;;9.93;1.90;;;6.30;99.90;;;;;;5073430;28;20226;-90
2022/02/19 00:07:55;;;;;;;11.23;2.43;;;6.30;99.90;;;;;;5073668;28;20218;-89
2022/02/19 00:10:22;;;;;;;13.80;2.40;;;6.30;99.90;;;;;;5072891;28;20216;-91
2022/02/19 00:12:55;;;;;;;11.13;2.70;;;6.30;99.90;;;;;;5072845;28;20447;-87
2022/02/19 00:15:29;;;;;;;9.60;2.30;;;6.30;99.90;;;;;;5073385;28;20221;-89
2022/02/19 00:17:57;;;;;;;12.93;2.47;;;6.30;99.90;;;;;;5073211;28;20205;-87
2022/02/19 00:20:30;;;;;;;9.23;2.23;;;6.20;99.90;;;;;;5075997;28;20195;-88
2022/02/19 00:22:58;;;;;;;9.47;1.70;;;6.20;99.90;;;;;;5083787;28;20255;-87
2022/02/19 00:25:26;;;;;;;7.67;2.00;;;6.20;99.90;;;;;;5083237;28;20186;-91
2022/02/19 00:27:59;;;;;;;9.93;1.67;;;6.20;99.90;;;;;;5073192;28;20190;-88
2022/02/19 00:30:32;;;;;;;8.90;2.20;;;6.30;99.90;;;;;;5075228;28;20202;-93
2022/02/19 00:32:59;;;;;;;9.70;1.90;;;6.20;99.90;;;;;;5077028;28;20194;-90
2022/02/19 00:35:33;;;;;;;8.57;2.17;;;6.20;99.90;;;;;;5076149;28;20442;-89
2022/02/19 00:38:00;;;;;;;8.10;2.17;;;6.20;99.90;;;;;;5076679;28;20202;-89
2022/02/19 00:40:27;;;;;;;9.13;1.77;;;6.20;99.90;;;;;;5076392;28;20212;-85
2022/02/19 00:43:00;;;;;;;8.40;2.00;;;6.20;99.90;;;;;;5076415;28;20537;-91
2022/02/19 00:45:27;;;;;;;7.63;2.20;;;6.20;99.90;;;;;;5059171;28;20201;-88
2022/02/19 00:47:57;;;;;;;6.40;1.77;;;6.20;99.90;;;;;;5076961;28;20197;-92
2022/02/19 00:50:29;;;;;;;10.23;2.47;;;6.10;99.90;;;;;;5076919;28;20197;-90
2022/02/19 00:52:58;;;;;;;8.13;1.77;;;6.10;99.90;;;;;;5076782;28;20572;-93
2022/02/19 00:55:31;;;;;;;6.47;1.73;;;6.20;99.90;;;;;;5077098;28;20186;-89
2022/02/19 00:57:57;;;;;;;4.60;1.20;;;6.10;99.90;;;;;;5076797;28;20196;-88
2022/02/19 01:00:30;;;;;;;11.60;1.97;;;6.10;99.90;;;;;;5076608;28;20194;-89
2022/02/19 01:02:58;;;;;;;7.03;1.90;;;6.00;99.90;;;;;;5076370;28;20233;-85
2022/02/19 01:05:27;;;;;;;15.27;1.87;;;6.00;99.90;;;;;;5076408;28;20236;-89
2022/02/19 01:07:55;;;;;;;6.47;1.20;;;6.00;99.90;;;;;;5076406;28;20206;-85
2022/02/19 01:10:23;;;;;;;6.97;1.80;;;5.90;99.90;;;;;;5075846;28;20213;-90
2022/02/19 01:12:51;;;;;;;8.90;2.00;;;5.90;99.90;;;;;;5076185;28;20589;-88
2022/02/19 01:15:18;;;;;;;10.47;1.60;;;5.90;99.90;;;;;;5076070;28;20198;-84
2022/02/19 01:17:48;;;;;;;5.50;1.27;;;5.80;99.90;;;;;;5076272;28;20194;-86
2022/02/19 01:20:17;;;;;;;9.70;2.00;;;5.90;99.90;;;;;;5076116;28;20193;-90
2022/02/19 01:22:46;;;;;;;7.90;1.83;;;5.90;99.90;;;;;;5076116;28;20234;-83
2022/02/19 01:25:15;;;;;;;6.00;1.43;;;5.90;99.90;;;;;;5075965;28;20197;-91
2022/02/19 01:27:46;;;;;;;9.90;1.67;;;5.90;99.90;;;;;;5076283;28;20202;-89
2022/02/19 01:30:13;;;;;;;6.70;1.50;;;5.90;99.90;;;;;;5077476;28;20437;-90
2022/02/19 01:32:46;;;;;;;6.87;1.60;;;5.80;99.90;;;;;;5079706;28;20315;-90
2022/02/19 01:35:15;;;;;;;5.87;1.73;;;5.70;99.90;;;;;;5076592;28;20545;-88
2022/02/19 01:37:44;;;;;;;8.50;1.67;;;5.70;99.90;;;;;;5075636;28;20438;-89
2022/02/19 01:40:11;;;;;;;4.07;1.30;;;5.70;99.90;;;;;;5076182;28;20213;-89
2022/02/19 01:42:39;;;;;;;10.80;1.67;;;5.60;99.90;;;;;;5075274;28;20218;-90
2022/02/19 01:45:15;;;;;;;3.37;1.30;;;5.70;99.90;;;;;;5076167;28;20858;-89
2022/02/19 01:47:43;;;;;;;5.43;1.40;;;5.60;99.90;;;;;;5075662;28;20441;-90
2022/02/19 01:50:13;;;;;;;7.17;1.80;;;5.60;99.90;;;;;;5075534;28;20945;-87
2022/02/19 01:52:45;;;;;;;5.27;1.67;;;5.50;99.90;;;;;;5075637;28;20801;-87
2022/02/19 01:55:15;;;;;;;10.10;2.10;;;5.50;99.90;;;;;;5075637;28;20287;-91
2022/02/19 01:57:44;;;;;;;5.90;1.80;;;5.50;99.90;;;;;;5075806;28;20443;-84
2022/02/19 02:00:14;;;;;;;5.80;1.17;;;5.40;99.90;;;;;;5075573;28;20447;-84
2022/02/19 02:02:43;;;;;;;6.60;1.53;;;5.40;99.90;;;;;;5075307;28;20482;-87
2022/02/19 02:05:10;;;;;;;6.20;1.87;;;5.40;99.90;;;;;;5075164;28;20454;-89
2022/02/19 02:07:46;;;;;;;5.33;1.47;;;5.30;99.90;;;;;;5075486;28;20435;-89
2022/02/19 02:10:12;;;;;;;9.17;1.80;;;5.30;99.90;;;;;;5075043;28;20446;-89
2022/02/19 02:12:40;;;;;;;6.33;1.80;;;5.30;99.90;;;;;;5075168;28;20438;-89
2022/02/19 02:15:25;;;;;;;7.50;1.40;;;5.20;99.90;;;;;;5075098;28;20427;-88
2022/02/19 02:17:53;;;;;;;8.17;1.57;;;5.20;99.90;;;;;;5075323;28;20646;-88
2022/02/19 02:20:20;;;;;;;6.43;1.80;;;5.20;99.90;;;;;;5075131;28;20946;-88
2022/02/19 02:22:48;;;;;;;4.07;1.30;;;5.20;99.90;;;;;;5074597;28;20565;-90
2022/02/19 02:25:21;;;;;;;2.77;0.87;;;5.10;99.90;;;;;;5074891;28;20426;-91
2022/02/19 02:27:49;;;;;;;8.07;2.10;;;5.10;99.90;;;;;;5074504;28;20428;-89
2022/02/19 02:30:22;;;;;;;9.47;2.33;;;5.20;99.90;;;;;;5074828;28;20925;-86
2022/02/19 02:32:53;;;;;;;6.53;1.70;;;5.10;99.90;;;;;;5074718;28;20438;-90
2022/02/19 02:35:23;;;;;;;9.67;1.67;;;5.10;99.90;;;;;;5074832;28;20438;-89
2022/02/19 02:37:54;;;;;;;6.50;1.50;;;5.10;99.90;;;;;;5074409;28;20802;-88
2022/02/19 02:40:21;;;;;;;3.53;1.47;;;5.00;99.90;;;;;;5074645;28;20442;-91
2022/02/19 02:43:00;;;;;;;7.70;1.50;;;5.00;99.90;;;;;;5074206;28;20439;-87
2022/02/19 02:45:27;;;;;;;7.60;1.73;;;5.00;99.90;;;;;;5074790;28;20459;-88
2022/02/19 02:47:55;;;;;;;7.70;1.40;;;5.00;99.90;;;;;;5074836;28;20431;-89
2022/02/19 02:50:27;;;;;;;7.75;2.30;;;4.90;99.90;;;;;;5073376;28;20428;-89
2022/02/19 02:53:01;;;;;;;8.33;2.13;;;5.00;99.90;;;;;;5073842;28;20667;-82
2022/02/19 02:55:34;;;;;;;5.87;1.80;;;5.00;99.90;;;;;;5074208;28;20423;-83
2022/02/19 02:58:06;;;;;;;9.50;1.17;;;5.00;99.90;;;;;;5074270;28;20936;-90
2022/02/19 03:00:39;;;;;;;7.87;1.60;;;4.90;99.90;;;;;;5074422;28;20426;-89
2022/02/19 03:03:09;;;;;;;7.27;1.77;;;4.90;99.90;;;;;;5073893;28;20471;-89
2022/02/19 03:05:42;;;;;;;6.13;1.97;;;4.90;99.90;;;;;;5074023;28;20484;-88
2022/02/19 03:08:16;;;;;;;12.17;1.60;;;4.90;99.90;;;;;;5074300;28;20439;-87
2022/02/19 03:10:43;;;;;;;6.73;1.63;;;4.90;99.90;;;;;;5073993;28;20454;-90
2022/02/19 03:13:26;;;;;;;7.40;1.87;;;4.90;99.90;;;;;;5073068;28;20424;-91
2022/02/19 03:15:53;;;;;;;4.60;1.43;;;4.90;99.90;;;;;;5074201;28;20439;-89
2022/02/19 03:18:21;;;;;;;5.97;1.57;;;4.90;99.90;;;;;;5074186;28;20450;-90
2022/02/19 03:20:48;;;;;;;8.07;1.50;;;4.90;99.90;;;;;;5073827;28;20446;-86
2022/02/19 03:23:16;;;;;;;8.37;1.97;;;4.90;99.90;;;;;;5073806;28;20474;-88
2022/02/19 03:26:14;;;;;;;7.73;1.83;;;4.90;99.90;;;;;;5074039;28;20431;-93
2022/02/19 03:28:48;;;;;;;6.97;2.20;;;4.90;99.90;;;;;;5073761;28;20431;-87
2022/02/19 03:31:18;;;;;;;13.03;2.37;;;4.80;99.90;;;;;;5073954;28;20439;-86
2022/02/19 03:33:51;;;;;;;3.70;1.77;;;4.80;99.90;;;;;;5074026;28;20454;-89
2022/02/19 03:36:24;;;;;;;9.20;1.70;;;4.80;99.90;;;;;;5074053;28;20435;-89
2022/02/19 03:38:55;;;;;;;5.83;2.10;;;4.80;99.90;;;;;;5074179;28;20446;-89
2022/02/19 03:41:24;;;;;;;11.20;2.00;;;4.80;99.90;;;;;;5074008;28;20518;-90
2022/02/19 03:43:51;;;;;;;5.93;1.87;;;4.80;99.90;;;;;;5073982;28;20528;-88
2022/02/19 03:46:24;;;;;;;15.80;2.60;;;4.80;99.90;;;;;;5074296;28;20454;-89
2022/02/19 03:48:51;;;;;;;5.73;1.87;;;4.70;99.90;;;;;;5073951;28;20574;-90
2022/02/19 03:51:24;;;;;;;9.50;2.10;;;4.70;99.90;;;;;;5073795;28;20924;-89
2022/02/19 03:53:55;;;;;;;8.33;1.70;;;4.70;99.90;;;;;;5074181;28;20439;-89
2022/02/19 03:56:25;;;;;;;10.20;2.07;;;4.70;99.90;;;;;;5074250;28;20426;-89
2022/02/19 03:58:58;;;;;;;10.45;2.53;;;4.70;99.90;;;;;;5072572;28;20542;-89
2022/02/19 04:01:27;;;;;;;6.20;1.97;;;4.80;99.90;;;;;;5073263;28;20196;-88
2022/02/19 04:03:56;;;;;;;7.30;2.03;;;4.80;99.90;;;;;;5072905;28;20490;-88
2022/02/19 04:06:30;;;;;;;11.83;2.23;;;4.70;99.90;;;;;;5076504;28;20488;-91
2022/02/19 04:08:58;;;;;;;10.20;2.13;;;4.70;99.90;;;;;;5077171;28;20458;-89
2022/02/19 04:11:25;;;;;;;8.50;3.13;;;4.70;99.90;;;;;;5077141;28;20461;-88
2022/02/19 04:13:53;;;;;;;7.47;1.90;;;4.70;99.90;;;;;;5077354;28;20447;-86
2022/02/19 04:16:26;;;;;;;12.77;1.97;;;4.70;99.90;;;;;;5077093;28;20434;-90
2022/02/19 04:18:53;;;;;;;11.77;1.93;;;4.70;99.90;;;;;;5076984;28;20419;-88
2022/02/19 04:21:21;;;;;;;10.95;2.70;;;4.70;99.90;;;;;;5076053;28;20427;-88
2022/02/19 04:23:48;;;;;;;13.53;2.20;;;4.80;99.90;;;;;;5077352;28;20214;-88
2022/02/19 04:26:19;;;;;;;9.90;2.30;;;4.70;99.90;;;;;;5076924;28;20438;-88
2022/02/19 04:28:49;;;;;;;11.93;2.20;;;4.70;99.90;;;;;;5077632;28;20442;-89
2022/02/19 04:31:21;;;;;;;7.47;1.93;;;4.80;99.90;;;;;;5076931;28;20431;-91
2022/02/19 04:33:51;;;;;;;7.33;2.03;;;4.80;99.90;;;;;;5077311;28;20458;-86
2022/02/19 04:36:24;;;;;;;6.50;1.80;;;4.80;99.90;;;;;;5077099;28;20472;-88
2022/02/19 04:38:56;;;;;;;17.37;2.73;;;4.70;99.90;;;;;;5077064;28;20427;-89
2022/02/19 04:41:30;;;;;;;13.23;2.63;;;4.80;99.90;;;;;;5076868;28;20442;-90
2022/02/19 04:44:03;;;;;;;13.03;2.30;;;4.70;99.90;;;;;;5076734;28;20961;-89
2022/02/19 04:46:30;;;;;;;10.23;2.07;;;4.70;99.90;;;;;;5082448;28;20459;-89
2022/02/19 04:48:57;;;;;;;13.60;2.50;;;4.70;99.90;;;;;;5073306;28;20802;-90
2022/02/19 04:51:24;;;;;;;10.17;2.37;;;4.70;99.90;;;;;;5056481;28;20942;-90
2022/02/19 04:53:54;;;;;;;19.17;2.90;;;4.70;99.90;;;;;;5056451;28;20935;-86
2022/02/19 04:56:21;;;;;;;9.07;3.20;;;4.70;99.90;;;;;;5056478;28;20431;-88
2022/02/19 04:58:55;;;;;;;7.43;1.73;;;4.70;99.90;;;;;;5056335;28;20444;-85
2022/02/19 05:01:23;;;;;;;12.17;1.93;;;4.70;99.90;;;;;;5055834;28;20443;-86
2022/02/19 05:03:54;;;;;;;12.17;1.90;;;4.80;99.90;;;;;;5056674;28;20506;-88
2022/02/19 05:06:24;;;;;;;8.97;1.90;;;4.80;99.90;;;;;;5056496;28;20494;-91
2022/02/19 05:08:51;;;;;;;14.10;2.60;;;4.70;99.90;;;;;;5056365;28;20435;-87
2022/02/19 05:11:17;;;;;;;7.07;1.90;;;4.80;99.90;;;;;;5056246;28;20454;-88
2022/02/19 05:13:50;;;;;;;16.17;2.77;;;4.70;99.90;;;;;;5056052;28;20474;-88
2022/02/19 05:16:19;;;;;;;9.67;1.97;;;4.80;99.90;;;;;;5055572;28;20439;-88
2022/02/19 05:18:49;;;;;;;13.00;2.47;;;4.80;99.90;;;;;;5056315;28;20458;-89
2022/02/19 05:21:16;;;;;;;9.80;1.90;;;4.80;99.90;;;;;;5055376;28;20443;-85
2022/02/19 05:23:43;;;;;;;6.40;1.87;;;4.80;99.90;;;;;;5055951;28;20447;-86
2022/02/19 05:26:10;;;;;;;10.33;1.93;;;4.90;99.90;;;;;;5055480;28;20439;-85
2022/02/19 05:28:41;;;;;;;8.97;1.93;;;4.80;99.90;;;;;;5055431;28;20472;-85
2022/02/19 05:31:13;;;;;;;12.80;2.17;;;4.80;99.90;;;;;;5055806;28;20436;-89
2022/02/19 05:33:47;;;;;;;9.07;2.53;;;4.90;99.90;;;;;;5055881;28;20459;-89
2022/02/19 05:36:14;;;;;;;15.73;2.20;;;4.90;99.90;;;;;;5055375;28;20443;-85
2022/02/19 05:38:42;;;;;;;11.10;2.07;;;4.80;99.90;;;;;;5055285;28;20463;-85
2022/02/19 05:41:08;;;;;;;11.83;2.07;;;4.80;99.90;;;;;;5054996;28;20942;-81
2022/02/19 05:43:35;;;;;;;12.67;2.47;;;4.80;99.90;;;;;;5055254;28;20455;-88
2022/02/19 05:46:08;;;;;;;8.63;2.27;;;4.80;99.90;;;;;;5055012;28;20444;-90
2022/02/19 05:48:38;;;;;;;12.70;2.10;;;4.80;99.90;;;;;;5054889;28;20946;-85
2022/02/19 05:51:12;;;;;;;13.03;2.70;;;4.80;99.90;;;;;;5054390;28;20436;-84
2022/02/19 05:53:40;;;;;;;9.77;2.40;;;4.80;99.90;;;;;;5055227;28;20455;-85
2022/02/19 05:56:10;;;;;;;18.27;2.80;;;4.70;99.90;;;;;;5054874;28;20436;-84
2022/02/19 05:58:43;;;;;;;14.37;3.00;;;4.60;99.90;;;;;;5054780;28;20442;-84
2022/02/19 06:01:10;;;;;;;8.63;1.80;;;4.70;99.90;;;;;;5056324;28;20460;-88
2022/02/19 06:03:38;;;;;;;13.70;2.30;;;4.70;99.90;;;;;;5074235;28;20992;-85
2022/02/19 06:06:07;;;;;;;15.50;3.10;;;4.70;99.90;;;;;;5074242;28;20457;-89
2022/02/19 06:08:37;;;;;;;17.63;2.90;;;4.60;99.90;;;;;;5074787;28;20435;-87
2022/02/19 06:11:04;;;;;;;9.70;2.30;;;4.60;99.90;;;;;;5074950;28;20455;-88
2022/02/19 06:13:33;;;;;;;15.80;2.97;;;4.60;99.90;;;;;;5074845;28;20526;-88
2022/02/19 06:16:06;;;;;;;18.73;3.87;;;4.60;99.90;;;;;;5074750;28;20451;-88
2022/02/19 06:18:34;;;;;;;9.20;2.43;;;4.50;99.90;;;;;;5074662;28;20450;-89
2022/02/19 06:21:03;;;;;;;13.90;2.70;;;4.50;99.90;;;;;;5075302;28;20446;-89
2022/02/19 06:23:31;;;;;;;13.70;2.60;;;4.40;99.90;;;;;;5075692;28;20430;-87
2022/02/19 06:25:59;;;;;;;12.63;2.93;;;4.40;99.90;;;;;;5075538;28;21068;-85
2022/02/19 06:28:27;;;;;;;15.47;2.97;;;4.40;99.90;;;;;;5076055;28;20944;-89
2022/02/19 06:30:54;;;;;;;17.50;3.80;;;4.50;99.90;;;;;;5080102;28;20434;-86
2022/02/19 06:33:21;;;;;;;14.27;2.53;;;4.50;99.90;;;;;;5083070;28;20457;-88
2022/02/19 06:35:51;;;;;;;16.02;3.42;;;4.60;99.90;;;;;;5081910;28;20434;-85
2022/02/19 06:38:17;;;;;;;18.27;3.07;;;4.40;99.90;;;;;;5083217;28;20196;-88
2022/02/19 06:40:47;;;;;;;17.47;2.97;;;4.40;99.90;;;;;;5084588;28;20419;-90
2022/02/19 06:43:21;;;;;;;13.53;2.73;;;4.40;99.90;;;;;;5079055;28;20455;-90
2022/02/19 06:45:49;;;;;;;17.17;2.80;;;4.40;99.90;;;;;;5078301;28;20487;-90
2022/02/19 06:48:22;;;;;;;20.30;3.73;;;4.40;99.90;;;;;;5076975;28;20464;-88
2022/02/19 06:50:49;;;;;;;14.10;3.07;;;4.30;99.90;;;;;;5074937;28;20459;-91
2022/02/19 06:53:15;;;;;;;11.73;3.40;;;4.20;99.90;;;;;;5075279;28;20454;-89
2022/02/19 06:55:44;;;;;;;18.83;3.57;;;4.10;99.90;;;;;;5074636;28;20442;-90
2022/02/19 06:58:11;;;;;;;24.52;4.80;;;4.10;99.90;;;;;;5073896;28;20443;-90
2022/02/19 07:00:51;;;;;;;18.63;4.30;;;4.10;99.90;;;;;;5070963;28;20642;-89
2022/02/19 07:03:19;;;;;;;24.13;4.90;;;4.20;99.90;;;;;;5054728;28;20459;-90
2022/02/19 07:05:51;;;;;;;13.13;3.93;;;4.10;99.90;;;;;;5054010;28;20537;-87
2022/02/19 07:08:20;;;;;;;13.27;3.80;;;4.10;99.90;;;;;;5054275;28;20444;-90
2022/02/19 07:10:49;;;;;;;14.93;3.70;;;4.20;99.90;;;;;;5054738;28;20440;-89
2022/02/19 07:13:16;;;;;;;23.73;4.73;;;4.20;99.90;;;;;;5073812;28;20541;-85
2022/02/19 07:15:51;;;;;;;16.77;3.87;;;4.20;99.90;;;;;;5077500;28;20442;-94
2022/02/19 07:18:21;;;;;;;23.97;5.87;;;4.20;99.90;;;;;;5075507;28;20470;-93
2022/02/19 07:20:58;;;;;;;11.90;4.07;;;4.20;99.90;;;;;;5076642;28;20427;-92
2022/02/19 07:23:31;;;;;;;18.17;4.40;;;4.30;99.90;;;;;;5075881;28;20447;-92
2022/02/19 07:26:00;;;;;;;17.83;4.27;;;4.30;99.90;;;;;;5076391;28;20485;-91
2022/02/19 07:28:27;;;;;;;22.47;4.43;;;4.30;99.90;;;;;;5076159;28;20979;-91
2022/02/19 07:31:02;;;;;;;19.43;4.53;;;4.30;99.90;;;;;;5075198;28;20445;-92
2022/02/19 07:33:29;;;;;;;17.67;3.90;;;4.40;99.90;;;;;;5075784;28;20454;-91
2022/02/19 07:36:02;;;;;;;17.20;4.03;;;4.40;99.90;;;;;;5075841;28;20426;-91
2022/02/19 07:38:34;;;;;;;10.83;3.77;;;4.50;99.90;;;;;;5075516;28;20449;-93
2022/02/19 07:41:02;;;;;;;15.03;3.63;;;4.50;99.90;;;;;;5079723;28;20449;-93
2022/02/19 07:43:30;;;;;;;26.53;4.63;;;4.60;99.90;;;;;;5079857;28;20477;-91
2022/02/19 07:46:04;;;;;;;15.17;3.50;;;4.60;99.90;;;;;;5081058;28;20478;-90
2022/02/19 07:48:32;;;;;;;17.60;3.43;;;4.60;99.90;;;;;;5082306;28;20481;-91
2022/02/19 07:59:27;;;;;;;21.40;4.10;;;4.60;99.90;;;;;;5083023;28;20472;-91
2022/02/19 08:01:56;;;;;;;16.07;3.20;;;4.70;99.90;;;;;;5081224;28;20458;-83
2022/02/19 08:04:22;;;;;;;14.47;3.50;;;4.70;99.90;;;;;;5076087;28;20964;-76
2022/02/19 08:06:49;;;;;;;15.07;4.60;;;4.80;99.90;;;;;;5075492;28;20424;-80
2022/02/19 08:09:16;;;;;;;18.30;3.50;;;4.90;99.90;;;;;;5075598;28;20516;-78
2022/02/19 08:11:43;;;;;;;7.17;3.03;;;4.90;99.90;;;;;;5076102;28;20450;-79
2022/02/19 08:14:10;;;;;;;17.17;3.07;;;5.00;99.90;;;;;;5076057;28;20451;-77
2022/02/19 08:16:36;;;;;;;13.90;3.10;;;5.00;99.90;;;;;;5076037;28;20568;-78
2022/02/19 08:19:05;;;;;;;14.70;3.40;;;5.10;99.90;;;;;;5075849;28;20458;-78
2022/02/19 08:21:31;;;;;;;13.13;3.90;;;5.10;99.90;;;;;;5075988;28;20205;-78
2022/02/19 08:23:58;;;;;;;15.40;3.40;;;5.20;99.90;;;;;;5075604;28;20198;-77
2022/02/19 08:26:26;;;;;;;19.43;3.73;;;5.20;99.90;;;;;;5075028;28;20493;-76
2022/02/19 08:28:53;;;;;;;15.02;4.07;;;5.30;99.90;;;;;;5075420;28;20879;-81
2022/02/19 08:31:20;;;;;;;21.73;3.93;;;5.30;99.90;;;;;;5075783;28;20645;-77
2022/02/19 08:33:47;;;;;;;17.70;3.67;;;5.40;99.90;;;;;;5075492;28;20454;-75
2022/02/19 08:36:16;;;;;;;8.47;3.10;;;5.50;99.90;;;;;;5075423;28;20198;-78
2022/02/19 08:38:43;;;;;;;18.00;3.23;;;5.60;99.90;;;;;;5075316;28;20197;-81
2022/02/19 08:41:10;;;;;;;10.23;3.23;;;5.70;99.90;;;;;;5075198;28;20190;-81
2022/02/19 08:43:37;;;;;;;10.07;3.03;;;5.70;99.90;;;;;;5074394;28;20202;-82
2022/02/19 08:46:07;;;;;;;13.63;3.47;;;5.70;99.90;;;;;;5075996;28;20237;-88
2022/02/19 08:48:33;;;;;;;17.37;3.63;;;5.70;99.90;;;;;;5074949;28;20202;-79
2022/02/19 08:51:01;;;;;;;16.37;3.20;;;5.80;99.90;;;;;;5073531;28;20270;-78
2022/02/19 08:53:31;;;;;;;15.53;3.50;;;5.90;99.90;;;;;;5075051;28;20247;-82
2022/02/19 08:55:58;;;;;;;15.10;3.10;;;5.90;99.90;;;;;;5075924;28;20205;-79
2022/02/19 08:58:27;;;;;;;15.23;3.37;;;5.90;99.90;;;;;;5075877;28;20197;-82
2022/02/19 09:00:55;;;;;;;19.97;3.73;;;6.00;99.90;;;;;;5075257;28;20201;-80
2022/02/19 09:03:23;;;;;;;17.17;3.47;;;6.10;99.90;;;;;;5075683;28;20197;-82
2022/02/19 09:05:51;;;;;;;11.17;2.60;;;6.10;99.90;;;;;;5075107;28;20674;-78
2022/02/19 09:08:19;;;;;;;11.30;3.23;;;6.10;99.90;;;;;;5075147;28;20213;-80
2022/02/19 09:10:47;;;;;;;11.23;3.27;;;6.10;99.90;;;;;;5074935;28;20191;-81
2022/02/19 09:13:17;;;;;;;14.60;3.53;;;6.20;99.90;;;;;;5074010;28;20202;-83
2022/02/19 09:15:46;;;;;;;12.30;3.13;;;6.30;99.90;;;;;;5076751;28;20190;-84
2022/02/19 09:18:13;;;;;;;16.47;3.40;;;6.40;99.90;;;;;;5075414;28;20213;-85
2022/02/19 09:20:41;;;;;;;11.47;2.83;;;6.40;99.90;;;;;;5075036;28;20198;-86
2022/02/19 09:23:08;;;;;;;13.27;3.47;;;6.40;99.90;;;;;;5074108;28;20633;-80
2022/02/19 09:25:35;;;;;;;11.80;3.30;;;6.40;99.90;;;;;;5074785;28;20271;-75
2022/02/19 09:28:04;;;;;;;15.57;3.90;;;6.40;99.90;;;;;;5074553;28;20675;-81
2022/02/19 09:30:30;;;;;;;13.73;3.77;;;6.30;99.90;;;;;;5068995;28;20194;-81
2022/02/19 09:33:00;;;;;;;13.90;3.70;;;6.40;99.90;;;;;;5074517;28;20645;-79
2022/02/19 09:35:28;;;;;;;12.03;3.90;;;6.40;99.90;;;;;;5075445;28;20186;-77
2022/02/19 09:37:54;;;;;;;13.20;3.43;;;6.50;99.90;;;;;;5074243;28;20684;-76
2022/02/19 09:40:21;;;;;;;13.27;3.63;;;6.50;99.90;;;;;;5074120;28;20205;-78
2022/02/19 09:42:50;;;;;;;15.67;3.23;;;6.50;99.90;;;;;;5073982;28;20641;-80
2022/02/19 09:45:18;;;;;;;13.40;3.53;;;6.60;99.90;;;;;;5073866;28;20217;-78
2022/02/19 09:47:46;;;;;;;13.53;3.67;;;6.60;99.90;;;;;;5073672;28;20736;-79
2022/02/19 09:50:13;;;;;;;11.43;2.97;;;6.60;99.90;;;;;;5073822;28;20190;-78
2022/02/19 09:52:41;;;;;;;16.57;4.03;;;6.60;99.90;;;;;;5073928;28;20194;-77
2022/02/19 09:55:08;;;;;;;11.07;3.00;;;6.70;99.90;;;;;;5074287;28;20198;-81
2022/02/19 09:57:36;;;;;;;9.70;2.73;;;6.80;99.90;;;;;;5075378;28;20205;-79
2022/02/19 10:00:03;;;;;;;9.27;2.97;;;7.00;99.90;;;;;;5074734;28;20289;-85
2022/02/19 10:02:33;;;;;;;9.77;2.57;;;6.90;99.90;;;;;;5073246;28;20567;-85
2022/02/19 10:05:16;;;;;;;13.63;3.13;;;6.90;99.90;;;;;;5075914;28;20257;-81
2022/02/19 10:07:46;;;;;;;10.60;2.70;;;6.90;99.90;;;;;;5074030;28;20233;-86
2022/02/19 10:10:31;;;;;;;11.57;2.90;;;6.90;99.90;;;;;;5075572;28;20198;-89
2022/02/19 10:12:58;;;;;;;13.77;3.53;;;7.00;99.90;;;;;;5075092;28;20217;-85
2022/02/19 10:15:39;;;;;;;10.30;2.67;;;7.10;99.90;;;;;;5076716;28;20209;-81
2022/02/19 10:18:25;;;;;;;13.90;3.27;;;7.10;99.90;;;;;;5075082;28;20259;-89
2022/02/19 10:20:55;;;;;;;12.77;2.77;;;7.20;99.90;;;;;;5072659;28;20660;-86
2022/02/19 10:23:24;;;;;;;10.13;3.00;;;7.30;99.90;;;;;;5073578;28;20428;-86
2022/02/19 10:26:01;;;;;;;11.03;2.63;;;7.30;99.90;;;;;;5074374;28;20236;-89
2022/02/19 10:28:28;;;;;;;14.43;2.40;;;7.30;99.90;;;;;;5074425;28;20197;-79
2022/02/19 10:30:55;;;;;;;8.07;2.13;;;7.40;99.90;;;;;;5072743;28;20209;-81
2022/02/19 10:33:31;;;;;;;13.27;2.20;;;7.40;99.90;;;;;;5073350;28;20206;-80
2022/02/19 10:36:02;;;;;;;9.13;2.13;;;7.50;99.90;;;;;;5074909;28;20215;-78
2022/02/19 10:38:29;;;;;;;15.37;3.27;;;7.70;99.90;;;;;;5075579;28;20198;-80
2022/02/19 10:40:57;;;;;;;11.63;2.60;;;7.60;99.90;;;;;;5074204;28;20566;-81
2022/02/19 10:43:32;;;;;;;10.03;2.17;;;7.50;99.90;;;;;;5073518;28;20194;-80
2022/02/19 10:46:00;;;;;;;11.10;1.83;;;7.40;99.90;;;;;;5073490;28;20229;-78
2022/02/19 10:48:31;;;;;;;8.23;1.90;;;7.50;99.90;;;;;;5072882;28;20549;-80
2022/02/19 10:51:08;;;;;;;8.60;2.00;;;7.50;99.90;;;;;;5074010;28;20206;-79
2022/02/19 10:53:36;;;;;;;5.10;2.40;;;7.60;99.90;;;;;;5073366;28;20263;-78
2022/02/19 10:56:11;;;;;;;6.30;1.80;;;7.60;99.90;;;;;;5074516;28;20202;-82
2022/02/19 10:58:39;;;;;;;6.00;2.43;;;7.60;99.90;;;;;;5075231;28;20206;-81
2022/02/19 11:01:19;;;;;;;8.03;1.93;;;7.70;99.90;;;;;;5076524;28;20213;-78
2022/02/19 11:03:48;;;;;;;7.00;2.10;;;7.80;99.90;;;;;;5075487;28;20678;-81
2022/02/19 11:06:16;;;;;;;6.57;1.67;;;7.80;99.90;;;;;;5074599;28;20230;-78
2022/02/19 11:08:45;;;;;;;7.82;2.70;;;7.80;99.90;;;;;;5073090;28;20489;-89
2022/02/19 11:11:13;;;;;;;7.13;2.00;;;7.90;99.90;;;;;;5076575;28;20209;-84
2022/02/19 11:13:47;;;;;;;6.73;2.23;;;7.90;99.90;;;;;;5076321;28;20215;-87
2022/02/19 11:16:14;;;;;;;6.07;1.67;;;8.00;99.90;;;;;;5074375;28;20247;-90
2022/02/19 11:18:43;;;;;;;11.47;2.20;;;7.90;99.90;;;;;;5075347;28;20212;-90
2022/02/19 11:21:14;;;;;;;8.97;2.07;;;8.00;99.90;;;;;;5075563;28;20197;-90
2022/02/19 11:23:46;;;;;;;12.37;2.53;;;7.80;99.90;;;;;;5075977;28;20202;-87
2022/02/19 11:26:18;;;;;;;12.40;2.30;;;7.90;99.90;;;;;;5076752;28;20225;-91
2022/02/19 11:28:47;;;;;;;11.83;2.40;;;8.00;99.90;;;;;;5076632;28;20672;-84
2022/02/19 11:31:19;;;;;;;9.48;3.10;;;8.10;99.90;;;;;;5057327;28;20435;-91
2022/02/19 11:33:55;;;;;;;13.33;2.77;;;8.10;99.90;;;;;;5077042;28;20550;-90
2022/02/19 11:36:26;;;;;;;8.67;2.30;;;8.20;99.90;;;;;;5075680;28;20205;-92
2022/02/19 11:38:55;;;;;;;8.90;2.03;;;8.40;99.90;;;;;;5075978;28;20205;-90
2022/02/19 11:41:35;;;;;;;8.83;2.20;;;8.20;99.90;;;;;;5076372;28;20209;-92
2022/02/19 11:44:29;;;;;;;9.23;2.03;;;8.30;99.90;;;;;;5076306;28;20204;-89
2022/02/19 11:46:57;;;;;;;8.53;2.03;;;8.30;99.90;;;;;;5077002;28;20229;-88
2022/02/19 11:49:27;;;;;;;8.77;2.30;;;8.60;99.90;;;;;;5077415;28;20216;-92
2022/02/19 11:52:15;;;;;;;8.32;2.13;;;8.30;99.90;;;;;;5075592;28;20352;-85
2022/02/19 11:54:42;;;;;;;8.43;2.60;;;8.30;99.90;;;;;;5074934;28;20683;-86
2022/02/19 11:57:18;;;;;;;3.83;2.00;;;8.30;99.90;;;;;;5076382;28;20668;-84
2022/02/19 11:59:47;;;;;;;9.03;2.73;;;8.40;99.90;;;;;;5067441;28;20202;-85
2022/02/19 12:02:19;;;;;;;14.87;2.57;;;8.70;99.90;;;;;;5053393;28;20206;-79
2022/02/19 12:05:17;;;;;;;12.47;2.40;;;8.80;99.90;;;;;;5054145;28;20309;-82
2022/02/19 12:07:58;;;;;;;9.63;2.60;;;8.90;99.90;;;;;;5054933;28;20303;-83
2022/02/19 12:10:27;;;;;;;13.37;2.33;;;8.80;99.90;;;;;;5054514;28;20396;-84
2022/02/19 12:13:07;;;;;;;7.40;2.23;;;8.80;99.90;;;;;;5054923;28;20218;-85
2022/02/19 12:15:36;;;;;;;8.98;3.15;;;8.80;99.90;;;;;;5052566;28;20413;-83
2022/02/19 12:18:04;;;;;;;11.37;2.97;;;8.90;99.90;;;;;;5054754;28;20203;-83
2022/02/19 12:20:39;;;;;;;6.27;2.40;;;9.00;99.90;;;;;;5054079;28;20225;-85
2022/02/19 12:23:11;;;;;;;9.03;2.60;;;8.90;99.90;;;;;;5055549;28;20213;-86
2022/02/19 12:26:01;;;;;;;8.73;2.20;;;8.90;99.90;;;;;;5037519;28;20206;-82
2022/02/19 12:28:29;;;;;;;9.13;2.50;;;8.90;99.90;;;;;;5058248;28;20252;-82
2022/02/19 12:31:20;;;;;;;11.03;2.60;;;9.00;99.90;;;;;;5058459;28;20575;-82
2022/02/19 12:33:50;;;;;;;10.37;2.17;;;8.90;99.90;;;;;;5069273;28;20221;-81
2022/02/19 12:36:17;;;;;;;9.87;2.40;;;8.90;99.90;;;;;;5076973;28;20206;-81
2022/02/19 12:38:54;;;;;;;12.47;2.80;;;8.80;99.90;;;;;;5076342;28;20232;-81
2022/02/19 12:41:22;;;;;;;7.40;2.50;;;8.80;99.90;;;;;;5076955;28;20406;-83
2022/02/19 12:44:05;;;;;;;8.30;2.87;;;9.00;99.90;;;;;;5076810;28;20210;-81
2022/02/19 12:46:34;;;;;;;10.83;2.63;;;9.00;99.90;;;;;;5077018;28;20247;-83
2022/02/19 12:49:05;;;;;;;6.93;2.77;;;9.10;99.90;;;;;;5075800;28;20645;-82
2022/02/19 12:51:33;;;;;;;10.73;3.10;;;9.10;99.90;;;;;;5075995;28;20194;-84
2022/02/19 12:54:03;;;;;;;7.77;2.60;;;9.10;99.90;;;;;;5076143;28;20202;-82
2022/02/19 12:56:38;;;;;;;15.80;2.73;;;9.00;99.90;;;;;;5076272;28;20205;-84
2022/02/19 12:59:06;;;;;;;8.60;2.40;;;9.00;99.90;;;;;;5077196;28;20209;-82
2022/02/19 13:01:33;;;;;;;8.73;2.30;;;9.10;99.90;;;;;;5077240;28;20209;-83
2022/02/19 13:04:00;;;;;;;9.77;2.40;;;9.00;99.90;;;;;;5076397;28;20218;-84
2022/02/19 13:06:31;;;;;;;9.03;2.27;;;9.00;99.90;;;;;;5076645;28;20221;-82
2022/02/19 13:09:12;;;;;;;12.33;2.73;;;9.00;99.90;;;;;;5076240;28;20220;-80
2022/02/19 13:11:39;;;;;;;9.77;2.40;;;8.90;99.90;;;;;;5073546;28;20465;-81
2022/02/19 13:14:06;;;;;;;7.60;2.33;;;8.80;99.90;;;;;;5075910;28;20210;-84
2022/02/19 13:16:33;;;;;;;6.83;2.00;;;8.90;99.90;;;;;;5076234;28;20224;-85